Time;durP1;ratioP1;P1;durP2;ratioP2;P2;SDS_P1;SDS_P2;PMS_P1;PMS_P2;Temp;Humidity;BMP_temperature;BMP_pressure;BME280_temperature;BME280_humidity;BME280_pressure;Samples;Min_cycle;Max_cycle;Signal;HPM_P1;HPM_P2
2021/11/28 00:02:19;;;;;;;90.60;43.58;;;1.40;99.90;;;;;;4995966;28;20100;-75
2021/11/28 00:04:46;;;;;;;105.93;47.35;;;1.40;99.90;;;;;;4977880;28;20026;-75
2021/11/28 00:14:54;;;;;;;320.50;118.65;;;1.40;99.90;;;;;;4995489;28;20109;-75
2021/11/28 00:17:20;;;;;;;186.10;78.68;;;1.40;99.90;;;;;;4978269;28;20029;-75
2021/11/28 00:19:46;;;;;;;122.40;55.90;;;1.50;99.90;;;;;;4995121;28;20454;-75
2021/11/28 00:22:11;;;;;;;112.75;49.55;;;1.50;99.90;;;;;;4978254;28;20030;-76
2021/11/28 00:24:38;;;;;;;91.70;44.38;;;1.50;99.90;;;;;;4995585;28;20376;-75
2021/11/28 00:27:04;;;;;;;107.07;45.03;;;1.50;99.90;;;;;;4977578;28;20069;-75
2021/11/28 00:29:30;;;;;;;89.68;42.80;;;1.40;99.90;;;;;;4977919;28;20495;-75
2021/11/28 00:31:57;;;;;;;125.03;57.35;;;1.50;99.90;;;;;;4995030;28;20106;-75
2021/11/28 00:34:23;;;;;;;127.32;57.63;;;1.40;99.90;;;;;;4995251;28;20388;-75
2021/11/28 00:36:49;;;;;;;110.90;53.75;;;1.50;99.90;;;;;;4994493;28;20081;-74
2021/11/28 00:39:15;;;;;;;100.47;47.65;;;1.50;99.90;;;;;;4995145;28;20480;-75
2021/11/28 00:41:41;;;;;;;103.88;49.15;;;1.40;99.90;;;;;;4977352;28;20029;-74
2021/11/28 00:44:06;;;;;;;99.22;46.85;;;1.40;99.90;;;;;;4995112;28;20487;-75
2021/11/28 00:46:33;;;;;;;101.65;50.63;;;1.40;99.90;;;;;;4994689;28;20097;-76
2021/11/28 00:49:02;;;;;;;99.13;48.97;;;1.40;99.90;;;;;;4995094;28;20022;-74
2021/11/28 00:51:36;;;;;;;127.82;56.40;;;1.40;99.90;;;;;;4977049;28;20026;-75
2021/11/28 00:54:03;;;;;;;114.10;48.10;;;1.40;99.90;;;;;;4995071;28;20388;-75
2021/11/28 00:56:29;;;;;;;93.38;44.97;;;1.40;99.90;;;;;;4994553;28;20419;-74
2021/11/28 00:58:55;;;;;;;100.00;45.28;;;1.40;99.90;;;;;;4977491;28;20034;-75
2021/11/28 01:01:20;;;;;;;93.10;43.55;;;1.30;99.90;;;;;;4976898;28;20398;-75
2021/11/28 01:03:46;;;;;;;94.45;42.97;;;1.30;99.90;;;;;;4994855;28;20037;-74
2021/11/28 01:06:12;;;;;;;84.18;40.83;;;1.30;99.90;;;;;;4976876;28;20093;-75
2021/11/28 01:08:38;;;;;;;103.88;46.25;;;1.20;99.90;;;;;;4994613;28;20058;-75
2021/11/28 01:11:03;;;;;;;91.55;43.58;;;1.20;99.90;;;;;;4994173;28;20058;-75
2021/11/28 01:13:29;;;;;;;97.53;41.00;;;1.30;99.90;;;;;;4977221;28;20034;-75
2021/11/28 01:15:56;;;;;;;84.88;40.00;;;1.30;99.90;;;;;;4994139;28;20082;-75
2021/11/28 01:18:22;;;;;;;76.28;37.88;;;1.30;99.90;;;;;;4994554;28;20131;-75
2021/11/28 01:20:47;;;;;;;83.45;39.80;;;1.30;99.90;;;;;;4994069;28;20022;-75
2021/11/28 01:23:13;;;;;;;71.38;31.98;;;1.30;99.90;;;;;;4976985;28;20026;-75
2021/11/28 01:25:39;;;;;;;74.45;35.33;;;1.30;99.90;;;;;;4976505;28;20018;-75
2021/11/28 01:28:04;;;;;;;82.95;35.80;;;1.40;99.90;;;;;;4994245;28;20080;-75
2021/11/28 01:30:30;;;;;;;71.55;34.28;;;1.40;99.90;;;;;;4993814;28;20434;-75
2021/11/28 01:32:56;;;;;;;73.00;35.42;;;1.40;99.90;;;;;;4994567;28;20583;-75
2021/11/28 01:35:22;;;;;;;61.25;30.23;;;1.40;99.90;;;;;;4993638;28;20377;-74
2021/11/28 01:37:48;;;;;;;61.55;29.95;;;1.40;99.90;;;;;;4994208;28;20022;-76
2021/11/28 01:40:19;;;;;;;65.30;29.73;;;1.40;99.90;;;;;;4993731;28;20094;-75
2021/11/28 01:42:47;;;;;;;180.75;77.47;;;1.40;99.90;;;;;;4994170;28;20027;-75
2021/11/28 01:45:22;;;;;;;75.88;37.15;;;1.40;99.90;;;;;;4976268;28;20030;-75
2021/11/28 01:47:49;;;;;;;60.78;32.15;;;1.40;99.90;;;;;;4993255;28;20041;-75
2021/11/28 01:50:15;;;;;;;75.97;32.65;;;1.40;99.90;;;;;;4993558;28;20018;-75
2021/11/28 01:52:41;;;;;;;83.18;41.45;;;1.40;99.90;;;;;;4994042;28;20034;-75
2021/11/28 01:55:15;;;;;;;122.97;54.25;;;1.40;99.90;;;;;;4975939;28;20029;-75
2021/11/28 01:57:41;;;;;;;88.75;41.63;;;1.40;99.90;;;;;;4993986;28;20038;-75
2021/11/28 02:00:18;;;;;;;94.65;42.40;;;1.40;99.90;;;;;;4975520;28;20026;-75
2021/11/28 02:02:44;;;;;;;100.22;43.17;;;1.40;99.90;;;;;;4985120;28;20046;-75
2021/11/28 02:05:10;;;;;;;107.15;44.72;;;1.50;99.90;;;;;;4993079;28;20025;-75
2021/11/28 02:07:36;;;;;;;134.35;57.45;;;1.40;99.90;;;;;;4993682;28;20085;-76
2021/11/28 02:10:04;;;;;;;94.80;42.88;;;1.40;99.90;;;;;;4993009;28;20030;-75
2021/11/28 02:12:30;;;;;;;90.78;38.47;;;1.40;99.90;;;;;;4993750;28;20373;-74
2021/11/28 02:15:00;;;;;;;120.68;51.33;;;1.50;99.90;;;;;;4975749;28;20029;-75
2021/11/28 02:17:26;;;;;;;82.25;36.28;;;1.40;99.90;;;;;;4981593;28;20057;-75
2021/11/28 02:19:52;;;;;;;87.55;39.38;;;1.40;99.90;;;;;;4993066;28;20413;-75
2021/11/28 02:22:17;;;;;;;79.95;36.72;;;1.40;99.90;;;;;;4993665;28;20057;-75
2021/11/28 02:24:43;;;;;;;84.65;37.00;;;1.40;99.90;;;;;;4993123;28;20385;-75
2021/11/28 02:27:09;;;;;;;76.60;33.22;;;1.40;99.90;;;;;;4993500;28;20026;-75
2021/11/28 02:29:38;;;;;;;73.28;33.90;;;1.50;99.90;;;;;;4993478;28;20034;-75
2021/11/28 02:32:05;;;;;;;80.85;34.53;;;1.50;99.90;;;;;;4975410;28;20026;-75
2021/11/28 02:34:30;;;;;;;73.05;32.97;;;1.50;99.90;;;;;;4993425;28;20401;-75
2021/11/28 02:36:56;;;;;;;75.93;35.65;;;1.50;99.90;;;;;;4993068;28;20030;-75
2021/11/28 02:39:22;;;;;;;99.38;45.30;;;1.50;99.90;;;;;;4993346;28;20041;-75
2021/11/28 02:41:48;;;;;;;98.35;44.10;;;1.50;99.90;;;;;;4992933;28;20019;-75
2021/11/28 02:44:15;;;;;;;89.95;38.95;;;1.60;99.90;;;;;;4993469;28;20025;-74
2021/11/28 02:46:42;;;;;;;88.78;36.70;;;1.50;99.90;;;;;;4992860;28;20518;-74
2021/11/28 02:49:08;;;;;;;133.40;48.53;;;1.60;99.90;;;;;;4975579;28;20026;-74
2021/11/28 02:51:35;;;;;;;178.75;61.65;;;1.50;99.90;;;;;;4992943;28;20053;-74
2021/11/28 02:54:01;;;;;;;181.98;65.45;;;1.60;99.90;;;;;;4975824;28;20073;-75
2021/11/28 02:56:27;;;;;;;149.57;53.35;;;1.60;99.90;;;;;;4992798;28;20093;-75
2021/11/28 02:58:53;;;;;;;140.60;51.50;;;1.60;99.90;;;;;;4977189;28;20511;-75
2021/11/28 03:01:20;;;;;;;163.07;53.92;;;1.60;99.90;;;;;;4996556;28;20018;-75
2021/11/28 03:03:46;;;;;;;74.30;33.67;;;1.60;99.90;;;;;;4997103;28;20030;-74
2021/11/28 03:06:12;;;;;;;154.35;56.90;;;1.60;99.90;;;;;;4996615;28;20038;-74
2021/11/28 03:08:38;;;;;;;119.63;48.45;;;1.50;99.90;;;;;;4996931;28;20038;-75
2021/11/28 03:11:05;;;;;;;94.57;43.60;;;1.50;99.90;;;;;;4979362;28;20018;-74
2021/11/28 03:13:36;;;;;;;90.90;37.38;;;1.50;99.90;;;;;;4979239;28;20026;-75
2021/11/28 03:16:06;;;;;;;81.15;35.78;;;1.50;99.90;;;;;;4979320;28;20030;-74
2021/11/28 03:18:32;;;;;;;91.28;36.28;;;1.50;99.90;;;;;;4979262;28;20022;-74
2021/11/28 03:21:03;;;;;;;113.15;43.20;;;1.50;99.90;;;;;;4996971;28;20103;-75
2021/11/28 03:23:31;;;;;;;95.28;40.25;;;1.50;99.90;;;;;;4979249;28;20395;-75
2021/11/28 03:26:12;;;;;;;97.00;38.78;;;1.60;99.90;;;;;;4979123;28;20018;-75
2021/11/28 03:28:46;;;;;;;133.30;50.58;;;1.50;99.90;;;;;;4979062;28;20038;-75
2021/11/28 03:31:12;;;;;;;120.90;45.90;;;1.50;99.90;;;;;;4979134;28;20023;-74
2021/11/28 03:33:39;;;;;;;194.07;63.25;;;1.50;99.90;;;;;;4979081;28;20534;-75
2021/11/28 03:36:06;;;;;;;165.93;56.85;;;1.50;99.90;;;;;;4978788;28;20038;-75
2021/11/28 03:38:32;;;;;;;107.32;40.35;;;1.50;99.90;;;;;;4996424;28;20534;-75
2021/11/28 03:40:58;;;;;;;148.30;50.42;;;1.50;99.90;;;;;;4978825;28;20395;-75
2021/11/28 03:43:24;;;;;;;106.35;44.00;;;1.50;99.90;;;;;;4996299;28;20026;-75
2021/11/28 03:45:50;;;;;;;108.80;38.63;;;1.50;99.90;;;;;;4996195;28;20049;-74
2021/11/28 03:48:15;;;;;;;120.28;40.30;;;1.50;99.90;;;;;;4978738;28;20488;-76
2021/11/28 03:50:42;;;;;;;125.78;43.47;;;1.50;99.90;;;;;;4996218;28;20061;-74
2021/11/28 03:53:08;;;;;;;130.93;45.10;;;1.50;99.90;;;;;;4996118;28;20030;-75
2021/11/28 03:55:34;;;;;;;181.57;51.63;;;1.40;99.90;;;;;;4996127;28;20022;-75
2021/11/28 03:58:00;;;;;;;111.40;43.20;;;1.40;99.90;;;;;;4978653;28;20537;-76
2021/11/28 04:00:26;;;;;;;127.15;42.22;;;1.40;99.90;;;;;;4995717;28;20026;-75
2021/11/28 04:02:51;;;;;;;154.40;55.50;;;1.30;99.90;;;;;;4995385;28;20084;-75
2021/11/28 04:05:17;;;;;;;147.82;49.15;;;1.30;99.90;;;;;;4996009;28;20395;-74
2021/11/28 04:07:43;;;;;;;131.93;43.95;;;1.30;99.90;;;;;;4978448;28;20125;-74
2021/11/28 04:10:09;;;;;;;103.80;40.30;;;1.30;99.90;;;;;;4994940;28;20034;-74
2021/11/28 04:12:35;;;;;;;101.68;37.53;;;1.30;99.90;;;;;;4995931;28;20033;-75
2021/11/28 04:15:01;;;;;;;176.43;69.53;;;1.20;99.90;;;;;;4995720;28;20380;-74
2021/11/28 04:17:28;;;;;;;138.70;52.65;;;1.20;99.90;;;;;;4978375;28;20069;-75
2021/11/28 04:19:54;;;;;;;91.80;36.78;;;1.20;99.90;;;;;;4995689;28;20026;-74
2021/11/28 04:22:20;;;;;;;89.60;36.53;;;1.20;99.90;;;;;;4978224;28;20065;-75
2021/11/28 04:24:46;;;;;;;105.40;38.53;;;1.10;99.90;;;;;;4978160;28;20037;-74
2021/11/28 04:27:13;;;;;;;106.03;39.58;;;1.20;99.90;;;;;;4994861;28;20535;-75
2021/11/28 04:29:38;;;;;;;111.45;39.65;;;1.10;99.90;;;;;;4994721;28;20022;-74
2021/11/28 04:32:04;;;;;;;116.90;42.45;;;1.20;99.90;;;;;;4994459;28;20026;-76
2021/11/28 04:34:30;;;;;;;135.32;47.75;;;1.20;99.90;;;;;;4995334;28;20081;-75
2021/11/28 04:36:56;;;;;;;94.07;36.40;;;1.10;99.90;;;;;;4995396;28;20022;-76
2021/11/28 04:39:21;;;;;;;104.93;37.55;;;1.10;99.90;;;;;;4977417;28;20143;-75
2021/11/28 04:41:47;;;;;;;113.97;36.60;;;1.10;99.90;;;;;;4995313;28;20037;-75
2021/11/28 04:44:13;;;;;;;99.38;34.85;;;1.10;99.90;;;;;;4994693;28;20108;-75
2021/11/28 04:46:40;;;;;;;97.32;36.80;;;1.10;99.90;;;;;;4977303;28;20416;-75
2021/11/28 04:49:07;;;;;;;81.57;32.45;;;1.10;99.90;;;;;;4977592;28;20037;-75
2021/11/28 04:51:33;;;;;;;84.88;31.73;;;1.10;99.90;;;;;;4994711;28;20030;-75
2021/11/28 04:53:59;;;;;;;75.88;29.83;;;1.20;99.90;;;;;;4994575;28;20018;-74
2021/11/28 04:56:26;;;;;;;97.55;35.33;;;1.20;99.90;;;;;;4994981;28;20018;-75
2021/11/28 04:58:52;;;;;;;98.32;34.45;;;1.20;99.90;;;;;;4977519;28;20057;-75
2021/11/28 05:01:18;;;;;;;144.18;51.25;;;1.10;99.90;;;;;;4994859;28;20502;-75
2021/11/28 05:03:44;;;;;;;107.05;38.45;;;1.20;99.90;;;;;;4977499;28;20023;-75
2021/11/28 05:06:09;;;;;;;133.63;44.63;;;1.10;99.90;;;;;;4994687;28;20022;-75
2021/11/28 05:08:35;;;;;;;145.63;43.47;;;1.20;99.90;;;;;;4994706;28;20030;-75
2021/11/28 05:11:00;;;;;;;98.63;33.78;;;1.20;99.90;;;;;;4977185;28;20022;-75
2021/11/28 05:13:26;;;;;;;96.85;34.55;;;1.20;99.90;;;;;;4994532;28;20075;-76
2021/11/28 05:15:52;;;;;;;112.15;38.90;;;1.20;99.90;;;;;;4994566;28;20030;-75
2021/11/28 05:18:17;;;;;;;108.40;37.85;;;1.20;99.90;;;;;;4977102;28;20026;-75
2021/11/28 05:20:46;;;;;;;133.75;42.78;;;1.20;99.90;;;;;;4976547;28;20084;-75
2021/11/28 05:23:12;;;;;;;137.15;42.63;;;1.20;99.90;;;;;;4994490;28;20022;-75
2021/11/28 05:25:38;;;;;;;143.40;44.03;;;1.20;99.90;;;;;;4976937;28;20029;-74
2021/11/28 05:28:06;;;;;;;145.63;48.30;;;1.20;99.90;;;;;;4993778;28;20061;-75
2021/11/28 05:30:32;;;;;;;125.65;38.88;;;1.20;99.90;;;;;;4976917;28;20089;-74
2021/11/28 05:32:58;;;;;;;110.57;34.88;;;1.20;99.90;;;;;;4994309;28;20432;-75
2021/11/28 05:35:24;;;;;;;151.25;43.60;;;1.20;99.90;;;;;;4994074;28;20117;-74
2021/11/28 05:37:50;;;;;;;148.60;44.03;;;1.20;99.90;;;;;;4976713;28;20022;-75
2021/11/28 05:40:15;;;;;;;87.22;32.13;;;1.20;99.90;;;;;;4994211;28;20433;-74
2021/11/28 05:42:46;;;;;;;88.00;32.47;;;1.20;99.90;;;;;;4994206;28;20027;-75
2021/11/28 05:45:12;;;;;;;84.18;32.20;;;1.20;99.90;;;;;;4976629;28;20034;-74
2021/11/28 05:47:37;;;;;;;113.90;37.70;;;1.20;99.90;;;;;;4976601;28;20412;-74
2021/11/28 05:50:04;;;;;;;97.68;31.42;;;1.20;99.90;;;;;;4993906;28;20030;-74
2021/11/28 05:52:29;;;;;;;95.55;32.38;;;1.20;99.90;;;;;;4976551;28;20380;-75
2021/11/28 05:54:56;;;;;;;100.25;32.63;;;1.20;99.90;;;;;;4993934;28;20027;-75
2021/11/28 05:57:22;;;;;;;147.00;36.78;;;1.20;99.90;;;;;;4993960;28;20033;-75
2021/11/28 05:59:47;;;;;;;99.05;27.63;;;1.10;99.90;;;;;;4993954;28;20035;-74
2021/11/28 06:02:13;;;;;;;116.10;30.70;;;1.00;99.90;;;;;;4993906;28;20152;-75
2021/11/28 06:04:39;;;;;;;133.32;34.58;;;1.00;99.90;;;;;;4976410;28;20026;-74
2021/11/28 06:07:04;;;;;;;175.55;36.85;;;1.00;99.90;;;;;;4993275;28;20549;-75
2021/11/28 06:09:30;;;;;;;134.18;28.73;;;0.90;99.90;;;;;;4975795;28;20027;-75
2021/11/28 06:11:56;;;;;;;147.35;33.78;;;0.90;99.90;;;;;;4975796;28;20021;-75
2021/11/28 06:14:22;;;;;;;144.82;31.48;;;0.80;99.90;;;;;;4993661;28;20388;-74
2021/11/28 06:16:47;;;;;;;268.40;43.42;;;0.80;99.90;;;;;;4976317;28;20132;-74
2021/11/28 06:19:13;;;;;;;164.18;32.42;;;0.70;99.90;;;;;;4976498;28;20026;-74
2021/11/28 06:21:39;;;;;;;173.75;32.90;;;0.70;99.90;;;;;;4993599;28;20423;-75
2021/11/28 06:24:05;;;;;;;111.78;34.00;;;0.70;99.90;;;;;;4993551;28;20061;-74
2021/11/28 06:26:30;;;;;;;136.27;31.38;;;0.60;99.90;;;;;;4976163;28;20484;-75
2021/11/28 06:28:56;;;;;;;188.52;35.05;;;0.60;99.90;;;;;;4976027;28;20030;-75
2021/11/28 06:31:22;;;;;;;148.43;29.63;;;0.60;99.90;;;;;;4975991;28;20077;-74
2021/11/28 06:33:48;;;;;;;218.02;34.10;;;0.50;99.90;;;;;;4995798;28;20022;-75
2021/11/28 06:36:14;;;;;;;189.82;31.90;;;0.50;99.90;;;;;;5000425;28;20428;-75
2021/11/28 06:38:40;;;;;;;174.95;28.98;;;0.50;99.90;;;;;;5000045;28;20022;-75
2021/11/28 06:41:06;;;;;;;147.50;30.65;;;0.40;99.90;;;;;;4982242;28;20026;-75
2021/11/28 06:43:32;;;;;;;103.30;26.85;;;0.40;99.90;;;;;;4982453;28;20120;-75
2021/11/28 06:45:57;;;;;;;167.38;32.15;;;0.40;99.90;;;;;;5000135;28;20026;-74
2021/11/28 06:48:24;;;;;;;215.00;33.75;;;0.40;99.90;;;;;;4999977;28;20078;-75
2021/11/28 06:50:51;;;;;;;199.35;36.28;;;0.40;99.90;;;;;;4999847;28;20561;-74
2021/11/28 06:53:17;;;;;;;174.43;32.88;;;0.40;99.90;;;;;;4999902;28;20058;-74
2021/11/28 06:55:42;;;;;;;164.95;28.77;;;0.40;99.90;;;;;;4982293;28;20120;-74
2021/11/28 06:58:08;;;;;;;160.40;30.98;;;0.40;99.90;;;;;;4982011;28;20030;-76
2021/11/28 07:00:34;;;;;;;134.68;27.70;;;0.40;99.90;;;;;;4999790;28;20480;-75
2021/11/28 07:03:00;;;;;;;138.13;28.33;;;0.40;99.90;;;;;;4998871;28;20050;-75
2021/11/28 07:05:25;;;;;;;111.28;29.70;;;0.40;99.90;;;;;;4982141;28;20073;-74
2021/11/28 07:07:51;;;;;;;122.40;30.65;;;0.40;99.90;;;;;;4999591;28;20034;-75
2021/11/28 07:10:17;;;;;;;150.05;30.05;;;0.30;99.90;;;;;;4982220;28;20053;-75
2021/11/28 07:12:44;;;;;;;125.68;29.75;;;0.20;99.90;;;;;;4982092;28;20022;-75
2021/11/28 07:15:11;;;;;;;151.88;28.48;;;0.20;99.90;;;;;;4999432;28;20388;-74
2021/11/28 07:17:37;;;;;;;119.93;24.38;;;0.20;99.90;;;;;;4998099;28;20026;-74
2021/11/28 07:20:05;;;;;;;131.85;27.90;;;0.10;99.90;;;;;;4999541;28;20101;-74
2021/11/28 07:22:31;;;;;;;107.20;24.35;;;0.10;99.90;;;;;;4998883;28;20105;-75
2021/11/28 07:24:57;;;;;;;103.65;23.83;;;0.10;99.90;;;;;;4994428;28;20089;-75
2021/11/28 07:27:22;;;;;;;90.72;23.23;;;0.20;99.90;;;;;;4994762;28;20035;-74
2021/11/28 07:29:48;;;;;;;129.13;27.77;;;0.10;99.90;;;;;;4982021;28;20022;-75
2021/11/28 07:32:14;;;;;;;99.25;27.05;;;0.10;99.90;;;;;;4992407;28;20526;-75
2021/11/28 07:34:39;;;;;;;104.22;24.20;;;0.10;99.90;;;;;;4997290;28;20073;-75
2021/11/28 07:37:05;;;;;;;76.82;17.52;;;0.00;99.90;;;;;;4980669;28;20084;-74
2021/11/28 07:39:31;;;;;;;88.55;18.98;;;-0.10;99.90;;;;;;4991009;28;20081;-74
2021/11/28 07:41:56;;;;;;;66.72;18.73;;;-0.20;99.90;;;;;;4991763;28;20034;-75
2021/11/28 07:44:22;;;;;;;81.13;22.42;;;-0.20;99.90;;;;;;4980011;28;20058;-75
2021/11/28 07:46:48;;;;;;;114.07;26.85;;;-0.30;99.90;;;;;;4990810;28;20507;-75
2021/11/28 07:49:13;;;;;;;91.65;27.10;;;-0.20;99.90;;;;;;4991319;28;20072;-74
2021/11/28 07:51:39;;;;;;;88.93;28.48;;;-0.20;99.90;;;;;;4976939;28;20075;-75
2021/11/28 07:54:06;;;;;;;86.60;28.23;;;-0.10;99.90;;;;;;4991515;28;20101;-74
2021/11/28 07:56:32;;;;;;;84.55;30.13;;;-0.10;99.90;;;;;;4991265;28;20542;-74
2021/11/28 07:58:58;;;;;;;83.75;26.05;;;-0.10;99.90;;;;;;4991016;28;20455;-74
2021/11/28 08:01:24;;;;;;;74.65;24.85;;;0.00;99.90;;;;;;4990924;28;20039;-75
2021/11/28 08:03:50;;;;;;;59.85;24.75;;;0.10;99.90;;;;;;4990564;28;20018;-75
2021/11/28 08:06:16;;;;;;;65.80;25.00;;;0.10;99.90;;;;;;4984063;28;20026;-74
2021/11/28 08:08:42;;;;;;;65.13;26.33;;;0.10;99.90;;;;;;4991087;28;20065;-74
2021/11/28 08:11:08;;;;;;;74.25;28.38;;;0.10;99.90;;;;;;4990522;28;20034;-74
2021/11/28 08:13:34;;;;;;;78.47;28.10;;;0.20;99.90;;;;;;4987267;28;20026;-74
2021/11/28 08:16:01;;;;;;;55.95;23.25;;;0.20;99.90;;;;;;4985292;28;20030;-74
2021/11/28 08:18:26;;;;;;;57.08;24.95;;;0.30;99.90;;;;;;4978637;28;20026;-75
2021/11/28 08:20:52;;;;;;;59.90;24.85;;;0.40;99.90;;;;;;4989526;28;20030;-74
2021/11/28 08:23:18;;;;;;;55.83;26.02;;;0.50;99.90;;;;;;4989733;28;20107;-75
2021/11/28 08:25:44;;;;;;;51.30;23.75;;;0.60;99.90;;;;;;4980941;28;20030;-74
2021/11/28 08:28:09;;;;;;;51.78;24.30;;;0.70;99.90;;;;;;4979959;28;20655;-75
2021/11/28 08:30:37;;;;;;;49.80;23.58;;;0.80;99.90;;;;;;4979171;28;20559;-74
2021/11/28 08:33:05;;;;;;;51.70;23.60;;;0.90;99.90;;;;;;4989685;28;20038;-74
2021/11/28 08:35:31;;;;;;;54.83;26.40;;;1.00;99.90;;;;;;4990198;28;20121;-75
2021/11/28 08:38:00;;;;;;;68.38;32.78;;;1.20;99.90;;;;;;4990360;28;20130;-75
2021/11/28 08:40:27;;;;;;;72.32;30.98;;;1.30;99.90;;;;;;4989676;28;20097;-75
2021/11/28 08:42:53;;;;;;;52.42;26.83;;;1.40;99.90;;;;;;4993470;28;20495;-75
2021/11/28 08:45:19;;;;;;;60.63;29.20;;;1.40;99.90;;;;;;4993169;28;20019;-74
2021/11/28 08:47:46;;;;;;;48.30;24.30;;;1.40;99.90;;;;;;4992421;28;20049;-75
2021/11/28 08:50:14;;;;;;;48.28;24.27;;;1.40;99.90;;;;;;4992899;28;20038;-74
2021/11/28 08:52:43;;;;;;;42.45;22.77;;;1.50;99.90;;;;;;4984610;28;20092;-74
2021/11/28 08:55:08;;;;;;;50.88;24.42;;;1.50;99.90;;;;;;4992770;28;20030;-74
2021/11/28 08:57:35;;;;;;;51.08;26.15;;;1.50;99.90;;;;;;4992492;28;20503;-75
2021/11/28 09:00:03;;;;;;;58.80;28.10;;;1.60;99.90;;;;;;4992693;28;20471;-74
2021/11/28 09:02:29;;;;;;;55.90;28.58;;;1.50;99.90;;;;;;4992192;28;20559;-74
2021/11/28 09:04:55;;;;;;;60.00;28.40;;;1.50;99.90;;;;;;4992375;28;20054;-74
2021/11/28 09:07:20;;;;;;;56.13;28.35;;;1.60;99.90;;;;;;4985374;28;20058;-74
2021/11/28 09:09:46;;;;;;;59.92;31.58;;;1.60;99.90;;;;;;4992719;28;20038;-74
2021/11/28 09:12:11;;;;;;;65.97;31.83;;;1.60;99.90;;;;;;4993209;28;20037;-75
2021/11/28 09:14:37;;;;;;;63.78;31.88;;;1.60;99.90;;;;;;4980292;28;20452;-74
2021/11/28 09:17:03;;;;;;;61.28;31.15;;;1.60;99.90;;;;;;4981886;28;20033;-75
2021/11/28 09:22:07;;;;;;;68.80;32.15;;;1.60;99.90;;;;;;4990969;28;20030;-74
2021/11/28 09:24:36;;;;;;;62.63;31.58;;;1.60;99.90;;;;;;4985362;28;20025;-74
2021/11/28 09:27:13;;;;;;;64.18;31.10;;;1.60;99.90;;;;;;4979523;28;20070;-74
2021/11/28 09:29:41;;;;;;;63.40;32.90;;;1.70;99.90;;;;;;4979315;28;20065;-74
2021/11/28 09:32:07;;;;;;;62.97;31.48;;;1.70;99.90;;;;;;4991121;28;20014;-75
2021/11/28 09:34:33;;;;;;;61.65;32.05;;;1.80;99.90;;;;;;4993022;28;20100;-74
2021/11/28 09:36:59;;;;;;;67.85;33.70;;;1.80;99.90;;;;;;4992435;28;20085;-74
2021/11/28 09:39:25;;;;;;;66.60;32.03;;;1.90;99.90;;;;;;4984085;28;20023;-74
2021/11/28 09:41:57;;;;;;;58.28;30.00;;;2.00;99.90;;;;;;4980930;28;20022;-74
2021/11/28 09:44:25;;;;;;;54.88;26.45;;;2.00;99.90;;;;;;4992430;28;20014;-74
2021/11/28 09:46:51;;;;;;;50.10;27.17;;;2.00;99.90;;;;;;4992164;28;20077;-74
2021/11/28 09:49:18;;;;;;;61.97;29.92;;;2.10;99.90;;;;;;4992274;28;20030;-74
2021/11/28 09:51:46;;;;;;;55.13;30.35;;;2.10;99.90;;;;;;4981157;28;20018;-74
2021/11/28 09:54:15;;;;;;;64.75;32.35;;;2.20;99.90;;;;;;4992361;28;20026;-74
2021/11/28 09:56:41;;;;;;;69.68;30.73;;;2.20;99.90;;;;;;4991337;28;20022;-74
2021/11/28 09:59:09;;;;;;;61.55;30.88;;;2.30;99.90;;;;;;4978452;28;20480;-74
2021/11/28 10:01:37;;;;;;;59.08;30.17;;;2.30;99.90;;;;;;4993191;28;20029;-75
2021/11/28 10:04:03;;;;;;;56.60;29.55;;;2.30;99.90;;;;;;4991309;28;20030;-74
2021/11/28 10:06:30;;;;;;;53.20;27.52;;;2.30;99.90;;;;;;4991209;28;20472;-75
2021/11/28 10:09:04;;;;;;;60.95;28.42;;;2.40;99.90;;;;;;4973151;28;20499;-74
2021/11/28 10:11:42;;;;;;;62.65;29.60;;;2.40;99.90;;;;;;4990591;28;20017;-76
2021/11/28 10:14:12;;;;;;;56.22;29.17;;;2.30;99.90;;;;;;4991023;28;20023;-74
2021/11/28 10:16:39;;;;;;;51.53;27.73;;;2.40;99.90;;;;;;4992183;28;20555;-75
2021/11/28 10:19:07;;;;;;;57.03;31.33;;;2.40;99.90;;;;;;4991270;28;20108;-74
2021/11/28 10:21:33;;;;;;;55.80;28.52;;;2.40;99.90;;;;;;4989768;28;20038;-74
2021/11/28 10:24:06;;;;;;;60.15;30.50;;;2.40;99.90;;;;;;4990510;28;20034;-75
2021/11/28 10:26:32;;;;;;;56.45;25.20;;;2.40;99.90;;;;;;4974435;28;20050;-74
2021/11/28 10:29:13;;;;;;;71.57;34.05;;;2.50;99.90;;;;;;4991537;28;20147;-75
2021/11/28 10:31:53;;;;;;;55.10;27.90;;;2.60;99.90;;;;;;4989858;28;20023;-75
2021/11/28 10:34:23;;;;;;;61.10;30.98;;;2.60;99.90;;;;;;4990851;28;20021;-74
2021/11/28 10:36:52;;;;;;;59.30;29.98;;;2.70;99.90;;;;;;4989153;28;20479;-74
2021/11/28 10:39:20;;;;;;;60.40;29.90;;;2.70;99.90;;;;;;4974089;28;20042;-74
2021/11/28 10:41:52;;;;;;;62.95;33.95;;;2.70;99.90;;;;;;4973645;28;20113;-74
2021/11/28 10:44:20;;;;;;;64.22;29.23;;;2.80;99.90;;;;;;4972636;28;20038;-74
2021/11/28 10:46:46;;;;;;;64.43;31.25;;;2.80;99.90;;;;;;4991468;28;20014;-75
2021/11/28 10:49:17;;;;;;;60.08;28.67;;;2.70;99.90;;;;;;4972221;28;20058;-75
2021/11/28 10:51:45;;;;;;;62.40;30.17;;;2.70;99.90;;;;;;4976199;28;20473;-75
2021/11/28 10:54:24;;;;;;;58.90;28.95;;;2.70;99.90;;;;;;4989088;28;20056;-74
2021/11/28 10:57:03;;;;;;;59.95;31.17;;;2.70;99.90;;;;;;4988973;28;20073;-74
2021/11/28 10:59:28;;;;;;;51.05;28.13;;;2.70;99.90;;;;;;4969150;28;20026;-75
2021/11/28 11:01:54;;;;;;;62.78;29.98;;;2.70;99.90;;;;;;4989554;28;20030;-75
2021/11/28 11:04:21;;;;;;;59.88;31.42;;;2.70;99.90;;;;;;4989451;28;20405;-74
2021/11/28 11:07:06;;;;;;;61.03;31.02;;;2.70;99.90;;;;;;4972648;28;20042;-74
2021/11/28 11:09:40;;;;;;;66.05;33.35;;;2.70;99.90;;;;;;4989792;28;20420;-75
2021/11/28 11:12:21;;;;;;;70.47;33.13;;;2.70;99.90;;;;;;4989606;28;20129;-75
2021/11/28 11:14:52;;;;;;;66.15;32.53;;;2.60;99.90;;;;;;4987696;28;20026;-74
2021/11/28 11:17:20;;;;;;;65.97;30.10;;;2.60;99.90;;;;;;4989140;28;20069;-74
2021/11/28 11:19:48;;;;;;;67.18;29.95;;;2.60;99.90;;;;;;4991978;28;20061;-74
2021/11/28 11:22:26;;;;;;;61.70;27.80;;;2.60;99.90;;;;;;4988990;28;20046;-74
2021/11/28 11:24:54;;;;;;;65.55;33.90;;;2.50;99.90;;;;;;4990373;28;20034;-74
2021/11/28 11:27:33;;;;;;;74.50;37.95;;;2.50;99.90;;;;;;4988950;28;20145;-74
2021/11/28 11:30:16;;;;;;;69.15;36.28;;;2.60;99.90;;;;;;4987904;28;20054;-74
2021/11/28 11:32:49;;;;;;;130.15;56.72;;;2.60;99.90;;;;;;4977691;28;20528;-73
2021/11/28 11:35:23;;;;;;;135.00;54.17;;;2.50;99.90;;;;;;4988543;28;20041;-73
2021/11/28 11:37:52;;;;;;;112.43;48.88;;;2.50;99.90;;;;;;4977588;28;20129;-74
2021/11/28 11:40:22;;;;;;;258.52;102.28;;;2.50;99.90;;;;;;4975914;28;20045;-74
2021/11/28 11:42:49;;;;;;;118.05;51.45;;;2.50;99.90;;;;;;4980119;28;20038;-74
2021/11/28 11:45:21;;;;;;;104.88;47.75;;;2.50;99.90;;;;;;4990387;28;20041;-73
2021/11/28 11:47:47;;;;;;;194.47;89.33;;;2.40;99.90;;;;;;4991511;28;20117;-75
2021/11/28 11:50:16;;;;;;;144.48;67.93;;;2.50;99.90;;;;;;4990705;28;20364;-73
2021/11/28 11:52:42;;;;;;;93.15;46.50;;;2.50;99.90;;;;;;4990106;28;20073;-74
2021/11/28 11:55:17;;;;;;;91.75;44.72;;;2.50;99.90;;;;;;4990546;28;20101;-74
2021/11/28 11:58:15;;;;;;;84.70;41.25;;;2.50;99.90;;;;;;4979836;28;20400;-74
2021/11/28 12:00:56;;;;;;;80.10;41.38;;;2.50;99.90;;;;;;4977423;28;20038;-74
2021/11/28 12:03:23;;;;;;;90.80;42.95;;;2.50;99.90;;;;;;4994371;28;20503;-74
2021/11/28 12:05:50;;;;;;;88.22;44.55;;;2.50;99.90;;;;;;4992653;28;20494;-74
2021/11/28 12:08:16;;;;;;;91.75;44.95;;;2.50;99.90;;;;;;4992123;28;20051;-74
2021/11/28 12:10:52;;;;;;;96.63;47.50;;;2.50;99.90;;;;;;4993527;28;20547;-74
2021/11/28 12:13:27;;;;;;;86.93;45.70;;;2.60;99.90;;;;;;4985321;28;20038;-74
2021/11/28 12:15:55;;;;;;;102.15;51.28;;;2.50;99.90;;;;;;4993197;28;20101;-74
2021/11/28 12:18:42;;;;;;;96.35;49.30;;;2.60;99.90;;;;;;4991950;28;20480;-74
2021/11/28 12:21:08;;;;;;;81.07;44.47;;;2.50;99.90;;;;;;4992124;28;20085;-75
2021/11/28 12:23:43;;;;;;;100.38;49.88;;;2.50;99.90;;;;;;4989684;28;20054;-74
2021/11/28 12:26:27;;;;;;;88.13;45.08;;;2.60;99.90;;;;;;4980638;28;20655;-74
2021/11/28 12:29:08;;;;;;;90.75;46.05;;;2.60;99.90;;;;;;4989978;28;20180;-74
2021/11/28 12:31:38;;;;;;;84.60;43.17;;;2.60;99.90;;;;;;4976603;28;20026;-74
2021/11/28 12:34:04;;;;;;;80.65;41.72;;;2.60;99.90;;;;;;4990814;28;20448;-74
2021/11/28 12:36:36;;;;;;;86.05;46.10;;;2.60;99.90;;;;;;4979393;28;20030;-75
2021/11/28 12:39:16;;;;;;;83.90;39.63;;;2.60;99.90;;;;;;4989441;28;20084;-74
2021/11/28 12:41:46;;;;;;;75.13;39.35;;;2.60;99.90;;;;;;4989526;28;20460;-74
2021/11/28 12:44:14;;;;;;;79.38;39.00;;;2.60;99.90;;;;;;4991182;28;20026;-74
2021/11/28 12:46:46;;;;;;;73.68;39.80;;;2.60;99.90;;;;;;4991239;28;20026;-74